DAL2120 KLAS-KLAX
Flight info
| Callsign | DAL2120 |
|---|---|
| Flight time | 0h 41m |
| Altitude | 30000 |
| Route | RADYR2 BLAQQ DCT SHTNR ANJLL4 |
| Aircraft | B739/M-SDE2E3FGHIRWXY/LB1 |
Departure
| Time | 2026-05-06 02:15 |
|---|---|
| Airport | Harry Reid International Airport (KLAS) |
Arrival
| Time | 2026-05-06 02:56 |
|---|---|
| Airport | Los Angeles International Airport (KLAX) |
| Time | Latitude | Longitude | Altitude | Speed | Heading |
|---|---|---|---|---|---|
| 2026-05-06 01:33 | 36.07991 | -115.14046 | 2191 ft | 0 kts | 60° |
| 2026-05-06 01:58 | 36.07990 | -115.14049 | 2187 ft | 2 kts | 60° |
| 2026-05-06 01:58 | 36.07980 | -115.14069 | 2190 ft | 3 kts | 60° |
| 2026-05-06 01:58 | 36.07971 | -115.14090 | 2191 ft | 3 kts | 62° |
| 2026-05-06 01:59 | 36.07963 | -115.14112 | 2190 ft | 3 kts | 79° |
| 2026-05-06 01:59 | 36.07962 | -115.14136 | 2190 ft | 3 kts | 110° |
| 2026-05-06 01:59 | 36.07971 | -115.14154 | 2189 ft | 3 kts | 154° |
| 2026-05-06 01:59 | 36.07984 | -115.14159 | 2190 ft | 1 kts | 180° |
| 2026-05-06 02:00 | 36.07999 | -115.14159 | 2190 ft | 2 kts | 180° |
| 2026-05-06 02:00 | 36.08005 | -115.14159 | 2187 ft | 0 kts | 180° |
| 2026-05-06 02:02 | 36.07998 | -115.14159 | 2190 ft | 1 kts | 180° |
| 2026-05-06 02:03 | 36.07992 | -115.14159 | 2190 ft | 0 kts | 180° |
| 2026-05-06 02:04 | 36.07989 | -115.14159 | 2189 ft | 2 kts | 180° |
| 2026-05-06 02:04 | 36.07961 | -115.14159 | 2189 ft | 6 kts | 180° |
| 2026-05-06 02:04 | 36.07915 | -115.14159 | 2189 ft | 7 kts | 180° |
| 2026-05-06 02:05 | 36.07868 | -115.14159 | 2188 ft | 7 kts | 180° |
| 2026-05-06 02:05 | 36.07823 | -115.14159 | 2188 ft | 6 kts | 180° |
| 2026-05-06 02:05 | 36.07778 | -115.14162 | 2188 ft | 6 kts | 194° |
| 2026-05-06 02:05 | 36.07755 | -115.14205 | 2189 ft | 6 kts | 263° |
| 2026-05-06 02:06 | 36.07755 | -115.14260 | 2187 ft | 7 kts | 271° |
| 2026-05-06 02:06 | 36.07754 | -115.14332 | 2187 ft | 10 kts | 271° |
| 2026-05-06 02:06 | 36.07760 | -115.14432 | 2188 ft | 13 kts | 275° |
| 2026-05-06 02:06 | 36.07768 | -115.14558 | 2188 ft | 16 kts | 275° |
| 2026-05-06 02:07 | 36.07778 | -115.14704 | 2188 ft | 18 kts | 275° |
| 2026-05-06 02:07 | 36.07788 | -115.14857 | 2188 ft | 17 kts | 274° |
| 2026-05-06 02:07 | 36.07797 | -115.15004 | 2188 ft | 17 kts | 274° |
| 2026-05-06 02:07 | 36.07805 | -115.15146 | 2187 ft | 16 kts | 271° |
| 2026-05-06 02:08 | 36.07805 | -115.15283 | 2188 ft | 16 kts | 270° |
| 2026-05-06 02:08 | 36.07804 | -115.15414 | 2188 ft | 15 kts | 269° |
| 2026-05-06 02:08 | 36.07804 | -115.15540 | 2188 ft | 14 kts | 270° |
| 2026-05-06 02:08 | 36.07804 | -115.15661 | 2187 ft | 14 kts | 270° |
| 2026-05-06 02:09 | 36.07804 | -115.15788 | 2187 ft | 16 kts | 270° |
| 2026-05-06 02:09 | 36.07803 | -115.15933 | 2187 ft | 18 kts | 270° |
| 2026-05-06 02:09 | 36.07803 | -115.16082 | 2186 ft | 17 kts | 270° |
| 2026-05-06 02:09 | 36.07803 | -115.16216 | 2186 ft | 14 kts | 270° |
| 2026-05-06 02:10 | 36.07785 | -115.16312 | 2191 ft | 11 kts | 228° |
| 2026-05-06 02:10 | 36.07722 | -115.16357 | 2190 ft | 10 kts | 206° |
| 2026-05-06 02:10 | 36.07659 | -115.16393 | 2189 ft | 10 kts | 205° |
| 2026-05-06 02:10 | 36.07597 | -115.16429 | 2188 ft | 10 kts | 205° |
| 2026-05-06 02:11 | 36.07537 | -115.16464 | 2188 ft | 9 kts | 205° |
| 2026-05-06 02:11 | 36.07478 | -115.16498 | 2189 ft | 9 kts | 205° |
| 2026-05-06 02:11 | 36.07422 | -115.16531 | 2187 ft | 9 kts | 210° |
| 2026-05-06 02:11 | 36.07388 | -115.16584 | 2189 ft | 7 kts | 254° |
| 2026-05-06 02:12 | 36.07391 | -115.16622 | 2188 ft | 2 kts | 297° |
| 2026-05-06 02:12 | 36.07392 | -115.16624 | 2188 ft | 0 kts | 299° |
| 2026-05-06 02:13 | 36.07392 | -115.16626 | 2188 ft | 1 kts | 299° |
| 2026-05-06 02:13 | 36.07400 | -115.16645 | 2190 ft | 4 kts | 296° |
| 2026-05-06 02:13 | 36.07421 | -115.16697 | 2190 ft | 8 kts | 295° |
| 2026-05-06 02:13 | 36.07452 | -115.16729 | 2189 ft | 6 kts | 356° |
| 2026-05-06 02:14 | 36.07495 | -115.16711 | 2189 ft | 12 kts | 24° |
| 2026-05-06 02:14 | 36.07785 | -115.16545 | 2187 ft | 83 kts | 25° |
| 2026-05-06 02:14 | 36.08512 | -115.16130 | 2190 ft | 145 kts | 25° |
| 2026-05-06 02:14 | 36.09582 | -115.15533 | 2299 ft | 184 kts | 25° |
| 2026-05-06 02:15 | 36.10793 | -115.14919 | 2864 ft | 193 kts | 15° |
| 2026-05-06 02:15 | 36.12104 | -115.14852 | 3584 ft | 189 kts | 341° |
| 2026-05-06 02:15 | 36.13139 | -115.15823 | 4073 ft | 197 kts | 297° |
| 2026-05-06 02:15 | 36.13352 | -115.17555 | 4279 ft | 218 kts | 260° |
| 2026-05-06 02:16 | 36.12953 | -115.19460 | 4535 ft | 238 kts | 253° |
| 2026-05-06 02:16 | 36.12449 | -115.21519 | 4761 ft | 260 kts | 253° |
| 2026-05-06 02:16 | 36.11430 | -115.25972 | 6308 ft | 268 kts | 255° |
| 2026-05-06 02:17 | 36.10718 | -115.28108 | 7041 ft | 274 kts | 234° |
| 2026-05-06 02:17 | 36.09281 | -115.29694 | 7722 ft | 283 kts | 210° |
| 2026-05-06 02:17 | 36.07458 | -115.30672 | 8458 ft | 288 kts | 202° |
| 2026-05-06 02:17 | 36.05559 | -115.31557 | 9167 ft | 295 kts | 201° |
| 2026-05-06 02:18 | 36.03632 | -115.32462 | 9939 ft | 298 kts | 201° |
| 2026-05-06 02:18 | 36.01665 | -115.33403 | 10443 ft | 312 kts | 201° |
| 2026-05-06 02:18 | 35.99607 | -115.34400 | 10940 ft | 323 kts | 201° |
| 2026-05-06 02:18 | 35.97499 | -115.35419 | 11581 ft | 328 kts | 201° |
| 2026-05-06 02:19 | 35.95354 | -115.36449 | 12271 ft | 333 kts | 201° |
| 2026-05-06 02:19 | 35.93170 | -115.37480 | 12951 ft | 339 kts | 198° |
| 2026-05-06 02:19 | 35.90844 | -115.37957 | 13602 ft | 342 kts | 180° |
| 2026-05-06 02:19 | 35.88455 | -115.38022 | 14279 ft | 345 kts | 179° |
| 2026-05-06 02:20 | 35.83619 | -115.38100 | 15608 ft | 349 kts | 179° |
| 2026-05-06 02:20 | 35.81182 | -115.38154 | 16264 ft | 352 kts | 179° |
| 2026-05-06 02:20 | 35.78720 | -115.38220 | 16896 ft | 355 kts | 179° |
| 2026-05-06 02:21 | 35.76238 | -115.38294 | 17527 ft | 359 kts | 180° |
| 2026-05-06 02:21 | 35.73752 | -115.38372 | 18168 ft | 362 kts | 180° |
| 2026-05-06 02:21 | 35.71225 | -115.38453 | 18735 ft | 365 kts | 180° |
| 2026-05-06 02:21 | 35.68678 | -115.38536 | 19283 ft | 368 kts | 179° |
| 2026-05-06 02:22 | 35.66103 | -115.38619 | 19829 ft | 371 kts | 179° |
| 2026-05-06 02:22 | 35.63512 | -115.38703 | 20400 ft | 374 kts | 179° |
| 2026-05-06 02:22 | 35.60901 | -115.38783 | 20978 ft | 376 kts | 178° |
| 2026-05-06 02:22 | 35.58276 | -115.38707 | 21533 ft | 378 kts | 174° |
| 2026-05-06 02:23 | 35.55645 | -115.38488 | 22087 ft | 380 kts | 173° |
| 2026-05-06 02:23 | 35.52993 | -115.38244 | 22627 ft | 384 kts | 173° |
| 2026-05-06 02:23 | 35.50319 | -115.38023 | 23164 ft | 387 kts | 173° |
| 2026-05-06 02:23 | 35.47613 | -115.37820 | 23661 ft | 391 kts | 173° |
| 2026-05-06 02:24 | 35.44917 | -115.37758 | 24064 ft | 398 kts | 184° |
| 2026-05-06 02:24 | 35.42224 | -115.38672 | 24427 ft | 409 kts | 203° |
| 2026-05-06 02:24 | 35.39679 | -115.40263 | 24856 ft | 413 kts | 206° |
| 2026-05-06 02:24 | 35.37132 | -115.41940 | 25231 ft | 418 kts | 206° |
| 2026-05-06 02:25 | 35.34560 | -115.43645 | 25600 ft | 423 kts | 206° |
| 2026-05-06 02:25 | 35.31956 | -115.45353 | 25985 ft | 427 kts | 205° |
| 2026-05-06 02:25 | 35.29288 | -115.47083 | 26394 ft | 430 kts | 205° |
| 2026-05-06 02:25 | 35.26624 | -115.48794 | 26773 ft | 434 kts | 205° |
| 2026-05-06 02:26 | 35.23967 | -115.50492 | 27141 ft | 438 kts | 205° |
| 2026-05-06 02:26 | 35.21253 | -115.52222 | 27517 ft | 442 kts | 204° |
| 2026-05-06 02:26 | 35.18478 | -115.53990 | 27883 ft | 446 kts | 204° |
| 2026-05-06 02:26 | 35.15720 | -115.55747 | 28247 ft | 449 kts | 204° |
| 2026-05-06 02:27 | 35.12954 | -115.57560 | 28594 ft | 454 kts | 210° |
| 2026-05-06 02:27 | 35.10506 | -115.60041 | 28897 ft | 462 kts | 225° |
| 2026-05-06 02:27 | 35.08299 | -115.62900 | 29268 ft | 465 kts | 226° |
| 2026-05-06 02:27 | 35.06090 | -115.65815 | 29568 ft | 469 kts | 226° |
| 2026-05-06 02:28 | 35.03862 | -115.68745 | 29857 ft | 472 kts | 226° |
| 2026-05-06 02:28 | 34.99306 | -115.74639 | 29925 ft | 484 kts | 225° |
| 2026-05-06 02:29 | 34.94598 | -115.80636 | 29920 ft | 495 kts | 225° |
| 2026-05-06 02:29 | 34.89818 | -115.86700 | 29906 ft | 500 kts | 225° |
| 2026-05-06 02:30 | 34.85000 | -115.92807 | 29900 ft | 500 kts | 225° |
| 2026-05-06 02:30 | 34.80193 | -115.98896 | 29885 ft | 498 kts | 225° |
| 2026-05-06 02:31 | 34.75406 | -116.04953 | 29886 ft | 495 kts | 225° |
| 2026-05-06 02:31 | 34.70668 | -116.10987 | 29886 ft | 491 kts | 226° |
| 2026-05-06 02:32 | 34.65966 | -116.16977 | 29884 ft | 487 kts | 226° |
| 2026-05-06 02:32 | 34.61335 | -116.22860 | 29887 ft | 478 kts | 226° |
| 2026-05-06 02:33 | 34.56747 | -116.28677 | 29903 ft | 476 kts | 226° |
| 2026-05-06 02:33 | 34.55234 | -116.30592 | 29897 ft | 474 kts | 226° |
| 2026-05-06 02:33 | 34.49869 | -116.37377 | 29330 ft | 478 kts | 226° |
| 2026-05-06 02:34 | 34.47590 | -116.40256 | 28842 ft | 468 kts | 226° |
| 2026-05-06 02:34 | 34.45359 | -116.43072 | 28340 ft | 459 kts | 226° |
| 2026-05-06 02:34 | 34.43160 | -116.45844 | 27827 ft | 456 kts | 226° |
| 2026-05-06 02:34 | 34.41141 | -116.48768 | 27335 ft | 450 kts | 240° |
| 2026-05-06 02:35 | 34.39724 | -116.52092 | 27023 ft | 441 kts | 245° |
| 2026-05-06 02:35 | 34.38412 | -116.55443 | 26512 ft | 439 kts | 246° |
| 2026-05-06 02:35 | 34.37105 | -116.58769 | 26024 ft | 437 kts | 245° |
| 2026-05-06 02:35 | 34.35776 | -116.62065 | 25532 ft | 435 kts | 245° |
| 2026-05-06 02:36 | 34.34430 | -116.65340 | 25038 ft | 433 kts | 244° |
| 2026-05-06 02:36 | 34.33085 | -116.68590 | 24571 ft | 430 kts | 244° |
| 2026-05-06 02:36 | 34.31788 | -116.71779 | 24194 ft | 416 kts | 245° |
| 2026-05-06 02:36 | 34.30545 | -116.74873 | 23778 ft | 404 kts | 245° |
| 2026-05-06 02:37 | 34.29323 | -116.77926 | 23310 ft | 401 kts | 245° |
| 2026-05-06 02:37 | 34.28111 | -116.80950 | 22793 ft | 399 kts | 245° |
| 2026-05-06 02:37 | 34.26904 | -116.83952 | 22315 ft | 395 kts | 245° |
| 2026-05-06 02:37 | 34.25707 | -116.86925 | 21868 ft | 391 kts | 245° |
| 2026-05-06 02:38 | 34.24519 | -116.89868 | 21413 ft | 388 kts | 245° |
| 2026-05-06 02:38 | 34.23341 | -116.92785 | 20969 ft | 385 kts | 245° |
| 2026-05-06 02:38 | 34.22170 | -116.95681 | 20515 ft | 382 kts | 245° |
| 2026-05-06 02:38 | 34.21015 | -116.98558 | 20077 ft | 379 kts | 248° |
| 2026-05-06 02:39 | 34.20097 | -117.01497 | 19795 ft | 370 kts | 253° |
| 2026-05-06 02:39 | 34.19343 | -117.04460 | 19364 ft | 368 kts | 255° |
| 2026-05-06 02:39 | 34.18612 | -117.07413 | 18938 ft | 366 kts | 255° |
| 2026-05-06 02:39 | 34.17857 | -117.10329 | 18516 ft | 363 kts | 254° |
| 2026-05-06 02:40 | 34.17081 | -117.13222 | 18061 ft | 361 kts | 253° |
| 2026-05-06 02:40 | 34.16301 | -117.16092 | 17596 ft | 358 kts | 253° |
| 2026-05-06 02:40 | 34.15520 | -117.18932 | 17156 ft | 355 kts | 253° |
| 2026-05-06 02:40 | 34.14743 | -117.21748 | 16704 ft | 353 kts | 253° |
| 2026-05-06 02:41 | 34.13979 | -117.24515 | 16272 ft | 350 kts | 253° |
| 2026-05-06 02:41 | 34.13203 | -117.27332 | 15847 ft | 348 kts | 253° |
| 2026-05-06 02:41 | 34.12442 | -117.30094 | 15423 ft | 346 kts | 253° |
| 2026-05-06 02:41 | 34.11684 | -117.32842 | 14990 ft | 344 kts | 253° |
| 2026-05-06 02:42 | 34.10939 | -117.35538 | 14570 ft | 343 kts | 253° |
| 2026-05-06 02:42 | 34.10201 | -117.38260 | 14139 ft | 341 kts | 254° |
| 2026-05-06 02:42 | 34.09514 | -117.40997 | 13684 ft | 340 kts | 255° |
| 2026-05-06 02:42 | 34.08842 | -117.43729 | 13217 ft | 339 kts | 255° |
| 2026-05-06 02:43 | 34.08170 | -117.46440 | 12766 ft | 335 kts | 255° |
| 2026-05-06 02:43 | 34.07504 | -117.49104 | 12479 ft | 327 kts | 255° |
| 2026-05-06 02:43 | 34.06845 | -117.51714 | 12103 ft | 325 kts | 255° |
| 2026-05-06 02:43 | 34.06183 | -117.54307 | 11711 ft | 323 kts | 255° |
| 2026-05-06 02:44 | 34.05522 | -117.56888 | 11316 ft | 321 kts | 255° |
| 2026-05-06 02:44 | 34.04866 | -117.59453 | 10921 ft | 320 kts | 255° |
| 2026-05-06 02:44 | 34.04210 | -117.62015 | 10526 ft | 319 kts | 255° |
| 2026-05-06 02:44 | 34.03564 | -117.64537 | 10351 ft | 310 kts | 255° |
| 2026-05-06 02:45 | 34.02935 | -117.66987 | 10200 ft | 301 kts | 255° |
| 2026-05-06 02:45 | 34.02327 | -117.69355 | 10071 ft | 292 kts | 255° |
| 2026-05-06 02:45 | 34.01904 | -117.71706 | 9828 ft | 285 kts | 265° |
| 2026-05-06 02:45 | 34.01697 | -117.74074 | 9488 ft | 283 kts | 266° |
| 2026-05-06 02:46 | 34.01507 | -117.76436 | 9166 ft | 282 kts | 266° |
| 2026-05-06 02:46 | 34.01314 | -117.78777 | 8824 ft | 280 kts | 266° |
| 2026-05-06 02:46 | 34.01175 | -117.80319 | 8623 ft | 279 kts | 265° |
| 2026-05-06 02:46 | 34.00957 | -117.82631 | 8305 ft | 277 kts | 265° |
| 2026-05-06 02:47 | 34.00735 | -117.84930 | 7996 ft | 276 kts | 265° |
| 2026-05-06 02:47 | 34.00513 | -117.87216 | 7673 ft | 274 kts | 265° |
| 2026-05-06 02:47 | 34.00290 | -117.89488 | 7346 ft | 270 kts | 265° |
| 2026-05-06 02:47 | 34.00072 | -117.91704 | 7034 ft | 263 kts | 265° |
| 2026-05-06 02:48 | 33.99858 | -117.93883 | 6740 ft | 261 kts | 265° |
| 2026-05-06 02:48 | 33.99646 | -117.96054 | 6434 ft | 260 kts | 265° |
| 2026-05-06 02:48 | 33.99491 | -117.98223 | 6092 ft | 259 kts | 268° |
| 2026-05-06 02:48 | 33.99349 | -118.00380 | 5758 ft | 259 kts | 265° |
| 2026-05-06 02:49 | 33.99138 | -118.02531 | 5433 ft | 258 kts | 264° |
| 2026-05-06 02:49 | 33.98906 | -118.04677 | 5096 ft | 257 kts | 263° |
| 2026-05-06 02:49 | 33.98686 | -118.06728 | 4808 ft | 250 kts | 263° |
| 2026-05-06 02:49 | 33.98471 | -118.08771 | 4528 ft | 242 kts | 263° |
| 2026-05-06 02:50 | 33.98263 | -118.10756 | 4285 ft | 235 kts | 263° |
| 2026-05-06 02:50 | 33.98062 | -118.12673 | 4029 ft | 226 kts | 263° |
| 2026-05-06 02:50 | 33.97869 | -118.14518 | 3814 ft | 220 kts | 263° |
| 2026-05-06 02:50 | 33.97680 | -118.16323 | 3572 ft | 213 kts | 263° |
| 2026-05-06 02:51 | 33.97499 | -118.18060 | 3352 ft | 204 kts | 263° |
| 2026-05-06 02:51 | 33.97327 | -118.19705 | 3173 ft | 192 kts | 263° |
| 2026-05-06 02:51 | 33.97165 | -118.21265 | 2973 ft | 185 kts | 263° |
| 2026-05-06 02:51 | 33.97005 | -118.22797 | 2813 ft | 184 kts | 263° |
| 2026-05-06 02:52 | 33.96849 | -118.24300 | 2601 ft | 176 kts | 263° |
| 2026-05-06 02:52 | 33.96703 | -118.25711 | 2386 ft | 163 kts | 263° |
| 2026-05-06 02:52 | 33.96566 | -118.27034 | 2264 ft | 158 kts | 263° |
| 2026-05-06 02:52 | 33.96433 | -118.28314 | 2118 ft | 151 kts | 264° |
| 2026-05-06 02:53 | 33.96307 | -118.29527 | 1896 ft | 139 kts | 263° |
| 2026-05-06 02:53 | 33.96188 | -118.30658 | 1711 ft | 135 kts | 262° |
| 2026-05-06 02:53 | 33.96076 | -118.31788 | 1452 ft | 139 kts | 264° |
| 2026-05-06 02:53 | 33.95966 | -118.32939 | 1310 ft | 133 kts | 263° |
| 2026-05-06 02:54 | 33.95847 | -118.34060 | 1038 ft | 138 kts | 263° |
| 2026-05-06 02:54 | 33.95717 | -118.35219 | 866 ft | 141 kts | 262° |
| 2026-05-06 02:54 | 33.95606 | -118.36370 | 667 ft | 137 kts | 261° |
| 2026-05-06 02:54 | 33.95473 | -118.37508 | 529 ft | 138 kts | 263° |
| 2026-05-06 02:55 | 33.95365 | -118.38677 | 378 ft | 141 kts | 261° |
| 2026-05-06 02:55 | 33.95243 | -118.39853 | 212 ft | 141 kts | 262° |
| 2026-05-06 02:55 | 33.95129 | -118.40967 | 105 ft | 123 kts | 262° |
| 2026-05-06 02:55 | 33.95053 | -118.41724 | 107 ft | 59 kts | 263° |
| 2026-05-06 02:56 | 33.95004 | -118.42062 | 106 ft | 34 kts | 247° |
| 2026-05-06 02:56 | 33.94927 | -118.42209 | 103 ft | 14 kts | 224° |
| 2026-05-06 02:56 | 33.94879 | -118.42259 | 103 ft | 9 kts | 211° |
| 2026-05-06 02:56 | 33.94824 | -118.42281 | 106 ft | 8 kts | 190° |
| 2026-05-06 02:57 | 33.94766 | -118.42281 | 105 ft | 9 kts | 176° |
| 2026-05-06 02:57 | 33.94690 | -118.42270 | 100 ft | 14 kts | 170° |
| 2026-05-06 02:57 | 33.94621 | -118.42247 | 97 ft | 9 kts | 142° |
| 2026-05-06 02:57 | 33.94611 | -118.42178 | 95 ft | 9 kts | 84° |
| 2026-05-06 02:58 | 33.94618 | -118.42107 | 96 ft | 8 kts | 84° |
| 2026-05-06 02:58 | 33.94625 | -118.42024 | 95 ft | 12 kts | 83° |
| 2026-05-06 02:58 | 33.94628 | -118.41896 | 98 ft | 18 kts | 86° |
| 2026-05-06 02:58 | 33.94642 | -118.41750 | 95 ft | 18 kts | 82° |
| 2026-05-06 02:59 | 33.94658 | -118.41606 | 95 ft | 17 kts | 82° |
| 2026-05-06 02:59 | 33.94672 | -118.41474 | 95 ft | 15 kts | 83° |
| 2026-05-06 02:59 | 33.94683 | -118.41362 | 95 ft | 13 kts | 83° |
| 2026-05-06 02:59 | 33.94719 | -118.41293 | 97 ft | 9 kts | 17° |
| 2026-05-06 03:00 | 33.94778 | -118.41283 | 98 ft | 8 kts | 33° |
| 2026-05-06 03:00 | 33.94799 | -118.41225 | 99 ft | 8 kts | 81° |
| 2026-05-06 03:00 | 33.94807 | -118.41155 | 99 ft | 10 kts | 83° |
| 2026-05-06 03:00 | 33.94816 | -118.41064 | 100 ft | 12 kts | 83° |
| 2026-05-06 03:01 | 33.94828 | -118.40947 | 100 ft | 16 kts | 82° |
| 2026-05-06 03:01 | 33.94845 | -118.40803 | 99 ft | 19 kts | 82° |
| 2026-05-06 03:01 | 33.94856 | -118.40659 | 99 ft | 13 kts | 84° |
| 2026-05-06 03:01 | 33.94814 | -118.40596 | 98 ft | 11 kts | 161° |
| 2026-05-06 03:02 | 33.94739 | -118.40578 | 95 ft | 11 kts | 173° |
| 2026-05-06 03:02 | 33.94712 | -118.40575 | 94 ft | 1 kts | 181° |
| 2026-05-06 03:02 | 33.94697 | -118.40578 | 96 ft | 3 kts | 199° |
| 2026-05-06 03:02 | 33.94683 | -118.40602 | 95 ft | 4 kts | 252° |
| 2026-05-06 03:03 | 33.94679 | -118.40630 | 94 ft | 3 kts | 262° |
| 2026-05-06 03:03 | 33.94677 | -118.40645 | 94 ft | 1 kts | 262° |
| 2026-05-06 03:03 | 33.94677 | -118.40651 | 94 ft | 0 kts | 262° |